sensor_id;sensor_type;location;lat;lon;timestamp;P1;durP1;ratioP1;P2;durP2;ratioP2
44564;SDS011;30275;51.822;-0.326;2022-12-29T00:01:31;21.25;;;4.60;;
44564;SDS011;30275;51.822;-0.326;2022-12-29T00:03:58;13.00;;;2.28;;
44564;SDS011;30275;51.822;-0.326;2022-12-29T00:06:23;8.40;;;2.95;;
44564;SDS011;30275;51.822;-0.326;2022-12-29T00:08:49;12.57;;;2.35;;
44564;SDS011;30275;51.822;-0.326;2022-12-29T00:11:16;17.38;;;2.75;;
44564;SDS011;30275;51.822;-0.326;2022-12-29T00:13:47;14.30;;;3.72;;
44564;SDS011;30275;51.822;-0.326;2022-12-29T00:16:32;15.57;;;3.53;;
44564;SDS011;30275;51.822;-0.326;2022-12-29T00:18:59;14.50;;;3.47;;
44564;SDS011;30275;51.822;-0.326;2022-12-29T00:21:25;8.05;;;2.97;;
44564;SDS011;30275;51.822;-0.326;2022-12-29T00:24:14;12.23;;;3.13;;
44564;SDS011;30275;51.822;-0.326;2022-12-29T00:29:47;15.85;;;2.55;;
44564;SDS011;30275;51.822;-0.326;2022-12-29T00:32:34;8.63;;;2.97;;
44564;SDS011;30275;51.822;-0.326;2022-12-29T00:37:53;12.15;;;2.55;;
44564;SDS011;30275;51.822;-0.326;2022-12-29T00:40:38;11.15;;;3.75;;
44564;SDS011;30275;51.822;-0.326;2022-12-29T00:43:23;21.15;;;3.38;;
44564;SDS011;30275;51.822;-0.326;2022-12-29T00:46:07;9.27;;;3.20;;
44564;SDS011;30275;51.822;-0.326;2022-12-29T00:48:33;18.45;;;2.65;;
44564;SDS011;30275;51.822;-0.326;2022-12-29T00:51:17;9.40;;;2.97;;
44564;SDS011;30275;51.822;-0.326;2022-12-29T00:53:42;10.82;;;2.72;;
44564;SDS011;30275;51.822;-0.326;2022-12-29T00:56:08;11.27;;;2.85;;
44564;SDS011;30275;51.822;-0.326;2022-12-29T00:58:34;7.47;;;3.03;;
44564;SDS011;30275;51.822;-0.326;2022-12-29T01:01:03;9.65;;;2.75;;
44564;SDS011;30275;51.822;-0.326;2022-12-29T01:03:31;12.53;;;3.50;;
44564;SDS011;30275;51.822;-0.326;2022-12-29T01:06:00;9.32;;;2.83;;
44564;SDS011;30275;51.822;-0.326;2022-12-29T01:08:27;18.40;;;3.42;;
44564;SDS011;30275;51.822;-0.326;2022-12-29T01:11:03;18.27;;;3.05;;
44564;SDS011;30275;51.822;-0.326;2022-12-29T01:13:31;9.95;;;2.45;;
44564;SDS011;30275;51.822;-0.326;2022-12-29T01:15:57;11.13;;;2.35;;
44564;SDS011;30275;51.822;-0.326;2022-12-29T01:18:23;14.90;;;3.15;;
44564;SDS011;30275;51.822;-0.326;2022-12-29T01:20:50;10.68;;;2.28;;
44564;SDS011;30275;51.822;-0.326;2022-12-29T01:23:16;7.95;;;1.90;;
44564;SDS011;30275;51.822;-0.326;2022-12-29T01:25:42;17.08;;;2.97;;
44564;SDS011;30275;51.822;-0.326;2022-12-29T01:28:07;14.52;;;2.92;;
44564;SDS011;30275;51.822;-0.326;2022-12-29T01:30:36;8.43;;;2.42;;
44564;SDS011;30275;51.822;-0.326;2022-12-29T01:33:02;13.70;;;4.10;;
44564;SDS011;30275;51.822;-0.326;2022-12-29T01:35:28;8.30;;;2.35;;
44564;SDS011;30275;51.822;-0.326;2022-12-29T01:37:54;9.23;;;2.25;;
44564;SDS011;30275;51.822;-0.326;2022-12-29T01:40:19;22.88;;;5.15;;
44564;SDS011;30275;51.822;-0.326;2022-12-29T01:42:45;13.25;;;2.40;;
44564;SDS011;30275;51.822;-0.326;2022-12-29T01:45:11;20.38;;;3.78;;
44564;SDS011;30275;51.822;-0.326;2022-12-29T01:47:39;13.00;;;2.60;;
44564;SDS011;30275;51.822;-0.326;2022-12-29T01:50:09;17.25;;;2.85;;
44564;SDS011;30275;51.822;-0.326;2022-12-29T01:52:37;17.85;;;3.15;;
44564;SDS011;30275;51.822;-0.326;2022-12-29T01:55:07;9.85;;;2.50;;
44564;SDS011;30275;51.822;-0.326;2022-12-29T01:57:34;11.75;;;2.60;;
44564;SDS011;30275;51.822;-0.326;2022-12-29T02:00:05;14.77;;;3.75;;
44564;SDS011;30275;51.822;-0.326;2022-12-29T02:02:34;10.43;;;3.17;;
44564;SDS011;30275;51.822;-0.326;2022-12-29T02:05:01;19.77;;;5.22;;
44564;SDS011;30275;51.822;-0.326;2022-12-29T02:07:34;14.80;;;3.00;;
44564;SDS011;30275;51.822;-0.326;2022-12-29T02:10:00;20.77;;;3.72;;
44564;SDS011;30275;51.822;-0.326;2022-12-29T02:12:27;13.40;;;3.95;;
44564;SDS011;30275;51.822;-0.326;2022-12-29T02:14:57;23.58;;;3.67;;
44564;SDS011;30275;51.822;-0.326;2022-12-29T02:22:25;9.85;;;3.00;;
44564;SDS011;30275;51.822;-0.326;2022-12-29T02:30:47;14.10;;;2.72;;
44564;SDS011;30275;51.822;-0.326;2022-12-29T02:37:02;9.60;;;2.53;;
44564;SDS011;30275;51.822;-0.326;2022-12-29T02:47:47;13.77;;;2.15;;
44564;SDS011;30275;51.822;-0.326;2022-12-29T02:50:23;5.78;;;2.00;;
44564;SDS011;30275;51.822;-0.326;2022-12-29T02:53:11;8.45;;;1.98;;
44564;SDS011;30275;51.822;-0.326;2022-12-29T02:55:47;10.32;;;2.67;;
44564;SDS011;30275;51.822;-0.326;2022-12-29T02:58:18;11.75;;;3.72;;
44564;SDS011;30275;51.822;-0.326;2022-12-29T03:03:33;7.88;;;2.17;;
44564;SDS011;30275;51.822;-0.326;2022-12-29T03:09:03;12.48;;;2.90;;
44564;SDS011;30275;51.822;-0.326;2022-12-29T03:11:43;11.02;;;3.17;;
44564;SDS011;30275;51.822;-0.326;2022-12-29T03:14:33;19.33;;;3.80;;
44564;SDS011;30275;51.822;-0.326;2022-12-29T03:17:42;11.90;;;3.30;;
44564;SDS011;30275;51.822;-0.326;2022-12-29T03:20:26;17.25;;;3.10;;
44564;SDS011;30275;51.822;-0.326;2022-12-29T03:23:02;19.48;;;3.53;;
44564;SDS011;30275;51.822;-0.326;2022-12-29T03:25:30;18.80;;;4.38;;
44564;SDS011;30275;51.822;-0.326;2022-12-29T03:28:08;16.20;;;4.55;;
44564;SDS011;30275;51.822;-0.326;2022-12-29T03:30:37;13.25;;;2.80;;
44564;SDS011;30275;51.822;-0.326;2022-12-29T03:33:05;17.40;;;4.10;;
44564;SDS011;30275;51.822;-0.326;2022-12-29T03:35:34;18.80;;;3.40;;
44564;SDS011;30275;51.822;-0.326;2022-12-29T03:38:06;11.98;;;3.67;;
44564;SDS011;30275;51.822;-0.326;2022-12-29T03:40:41;20.92;;;3.58;;
44564;SDS011;30275;51.822;-0.326;2022-12-29T03:43:10;13.00;;;3.25;;
44564;SDS011;30275;51.822;-0.326;2022-12-29T03:45:37;13.75;;;3.72;;
44564;SDS011;30275;51.822;-0.326;2022-12-29T03:48:03;13.75;;;3.00;;
44564;SDS011;30275;51.822;-0.326;2022-12-29T03:50:29;12.88;;;3.13;;
44564;SDS011;30275;51.822;-0.326;2022-12-29T03:52:55;10.52;;;3.15;;
44564;SDS011;30275;51.822;-0.326;2022-12-29T03:55:21;18.90;;;4.40;;
44564;SDS011;30275;51.822;-0.326;2022-12-29T03:57:46;8.82;;;3.03;;
44564;SDS011;30275;51.822;-0.326;2022-12-29T04:00:12;14.18;;;4.63;;
44564;SDS011;30275;51.822;-0.326;2022-12-29T04:02:38;18.38;;;3.17;;
44564;SDS011;30275;51.822;-0.326;2022-12-29T04:05:04;14.13;;;3.60;;
44564;SDS011;30275;51.822;-0.326;2022-12-29T04:07:30;9.63;;;3.85;;
44564;SDS011;30275;51.822;-0.326;2022-12-29T04:09:56;20.08;;;3.78;;
44564;SDS011;30275;51.822;-0.326;2022-12-29T04:12:21;15.13;;;2.50;;
44564;SDS011;30275;51.822;-0.326;2022-12-29T04:14:47;13.55;;;3.78;;
44564;SDS011;30275;51.822;-0.326;2022-12-29T04:17:13;14.82;;;3.13;;
44564;SDS011;30275;51.822;-0.326;2022-12-29T04:19:38;17.83;;;4.72;;
44564;SDS011;30275;51.822;-0.326;2022-12-29T04:22:04;15.00;;;3.65;;
44564;SDS011;30275;51.822;-0.326;2022-12-29T04:24:29;16.90;;;3.55;;
44564;SDS011;30275;51.822;-0.326;2022-12-29T04:26:55;18.77;;;2.97;;
44564;SDS011;30275;51.822;-0.326;2022-12-29T04:29:21;10.85;;;2.80;;
44564;SDS011;30275;51.822;-0.326;2022-12-29T04:31:46;9.68;;;3.40;;
44564;SDS011;30275;51.822;-0.326;2022-12-29T04:34:12;21.85;;;4.22;;
44564;SDS011;30275;51.822;-0.326;2022-12-29T04:36:38;13.50;;;3.70;;
44564;SDS011;30275;51.822;-0.326;2022-12-29T04:39:04;13.13;;;4.25;;
44564;SDS011;30275;51.822;-0.326;2022-12-29T04:41:30;11.20;;;3.17;;
44564;SDS011;30275;51.822;-0.326;2022-12-29T04:43:56;17.80;;;3.38;;
44564;SDS011;30275;51.822;-0.326;2022-12-29T04:46:22;8.43;;;2.60;;
44564;SDS011;30275;51.822;-0.326;2022-12-29T04:48:48;10.52;;;2.97;;
44564;SDS011;30275;51.822;-0.326;2022-12-29T04:51:14;11.85;;;2.25;;
44564;SDS011;30275;51.822;-0.326;2022-12-29T04:53:39;14.15;;;3.13;;
44564;SDS011;30275;51.822;-0.326;2022-12-29T04:56:05;17.63;;;3.15;;
44564;SDS011;30275;51.822;-0.326;2022-12-29T04:58:31;18.60;;;4.18;;
44564;SDS011;30275;51.822;-0.326;2022-12-29T05:00:57;16.67;;;2.45;;
44564;SDS011;30275;51.822;-0.326;2022-12-29T05:03:22;11.00;;;2.90;;
44564;SDS011;30275;51.822;-0.326;2022-12-29T05:05:48;14.90;;;3.97;;
44564;SDS011;30275;51.822;-0.326;2022-12-29T05:08:13;15.45;;;3.97;;
44564;SDS011;30275;51.822;-0.326;2022-12-29T05:10:39;10.52;;;2.30;;
44564;SDS011;30275;51.822;-0.326;2022-12-29T05:13:08;12.30;;;2.88;;
44564;SDS011;30275;51.822;-0.326;2022-12-29T05:15:34;6.38;;;2.58;;
44564;SDS011;30275;51.822;-0.326;2022-12-29T05:17:59;12.32;;;2.75;;
44564;SDS011;30275;51.822;-0.326;2022-12-29T05:20:25;8.43;;;1.80;;
44564;SDS011;30275;51.822;-0.326;2022-12-29T05:22:51;8.57;;;1.88;;
44564;SDS011;30275;51.822;-0.326;2022-12-29T05:25:16;9.48;;;1.65;;
44564;SDS011;30275;51.822;-0.326;2022-12-29T05:27:42;11.95;;;3.13;;
44564;SDS011;30275;51.822;-0.326;2022-12-29T05:30:07;11.93;;;2.58;;
44564;SDS011;30275;51.822;-0.326;2022-12-29T05:32:34;12.02;;;2.05;;
44564;SDS011;30275;51.822;-0.326;2022-12-29T05:34:59;7.40;;;1.58;;
44564;SDS011;30275;51.822;-0.326;2022-12-29T05:37:25;5.13;;;1.42;;
44564;SDS011;30275;51.822;-0.326;2022-12-29T05:39:51;5.78;;;1.70;;
44564;SDS011;30275;51.822;-0.326;2022-12-29T05:42:16;3.00;;;1.27;;
44564;SDS011;30275;51.822;-0.326;2022-12-29T05:44:42;3.20;;;1.40;;
44564;SDS011;30275;51.822;-0.326;2022-12-29T05:47:08;5.65;;;1.70;;
44564;SDS011;30275;51.822;-0.326;2022-12-29T05:49:33;5.07;;;1.48;;
44564;SDS011;30275;51.822;-0.326;2022-12-29T05:51:59;4.63;;;1.15;;
44564;SDS011;30275;51.822;-0.326;2022-12-29T05:54:24;6.93;;;1.20;;
44564;SDS011;30275;51.822;-0.326;2022-12-29T05:56:50;10.18;;;1.83;;
44564;SDS011;30275;51.822;-0.326;2022-12-29T05:59:16;8.57;;;1.45;;
44564;SDS011;30275;51.822;-0.326;2022-12-29T06:01:41;5.55;;;3.03;;
44564;SDS011;30275;51.822;-0.326;2022-12-29T06:04:07;4.45;;;1.38;;
44564;SDS011;30275;51.822;-0.326;2022-12-29T06:06:32;3.80;;;1.70;;
44564;SDS011;30275;51.822;-0.326;2022-12-29T06:08:58;5.65;;;1.00;;
44564;SDS011;30275;51.822;-0.326;2022-12-29T06:11:24;3.70;;;1.00;;
44564;SDS011;30275;51.822;-0.326;2022-12-29T06:13:49;6.38;;;0.90;;
44564;SDS011;30275;51.822;-0.326;2022-12-29T06:16:15;6.60;;;1.50;;
44564;SDS011;30275;51.822;-0.326;2022-12-29T06:18:41;8.38;;;2.10;;
44564;SDS011;30275;51.822;-0.326;2022-12-29T06:21:07;7.15;;;1.13;;
44564;SDS011;30275;51.822;-0.326;2022-12-29T06:23:32;3.55;;;0.90;;
44564;SDS011;30275;51.822;-0.326;2022-12-29T06:25:58;6.40;;;0.88;;
44564;SDS011;30275;51.822;-0.326;2022-12-29T06:28:24;4.72;;;1.55;;
44564;SDS011;30275;51.822;-0.326;2022-12-29T06:30:49;2.85;;;1.25;;
44564;SDS011;30275;51.822;-0.326;2022-12-29T06:33:15;2.03;;;1.00;;
44564;SDS011;30275;51.822;-0.326;2022-12-29T06:35:42;4.30;;;0.95;;
44564;SDS011;30275;51.822;-0.326;2022-12-29T06:38:07;4.38;;;0.90;;
44564;SDS011;30275;51.822;-0.326;2022-12-29T06:40:33;4.03;;;1.10;;
44564;SDS011;30275;51.822;-0.326;2022-12-29T06:42:59;4.60;;;1.00;;
44564;SDS011;30275;51.822;-0.326;2022-12-29T06:45:24;5.88;;;1.20;;
44564;SDS011;30275;51.822;-0.326;2022-12-29T06:47:50;2.25;;;0.90;;
44564;SDS011;30275;51.822;-0.326;2022-12-29T06:50:16;2.80;;;1.05;;
44564;SDS011;30275;51.822;-0.326;2022-12-29T06:52:41;3.05;;;1.20;;
44564;SDS011;30275;51.822;-0.326;2022-12-29T06:55:07;2.00;;;1.13;;
44564;SDS011;30275;51.822;-0.326;2022-12-29T06:57:33;1.50;;;0.90;;
44564;SDS011;30275;51.822;-0.326;2022-12-29T06:59:58;3.00;;;1.00;;
44564;SDS011;30275;51.822;-0.326;2022-12-29T07:02:24;2.53;;;0.65;;
44564;SDS011;30275;51.822;-0.326;2022-12-29T07:04:51;5.90;;;1.17;;
44564;SDS011;30275;51.822;-0.326;2022-12-29T07:07:17;4.05;;;0.80;;
44564;SDS011;30275;51.822;-0.326;2022-12-29T07:09:46;4.90;;;1.08;;
44564;SDS011;30275;51.822;-0.326;2022-12-29T07:12:14;3.38;;;1.17;;
44564;SDS011;30275;51.822;-0.326;2022-12-29T07:14:43;3.78;;;1.10;;
44564;SDS011;30275;51.822;-0.326;2022-12-29T07:17:08;2.65;;;1.10;;
44564;SDS011;30275;51.822;-0.326;2022-12-29T07:19:34;1.80;;;0.60;;
44564;SDS011;30275;51.822;-0.326;2022-12-29T07:22:00;5.78;;;1.30;;
44564;SDS011;30275;51.822;-0.326;2022-12-29T07:24:27;1.95;;;1.17;;
44564;SDS011;30275;51.822;-0.326;2022-12-29T07:26:54;4.20;;;1.00;;
44564;SDS011;30275;51.822;-0.326;2022-12-29T07:29:21;1.73;;;0.75;;
44564;SDS011;30275;51.822;-0.326;2022-12-29T07:31:47;4.57;;;1.00;;
44564;SDS011;30275;51.822;-0.326;2022-12-29T07:34:16;4.22;;;0.95;;
44564;SDS011;30275;51.822;-0.326;2022-12-29T07:36:41;2.78;;;1.25;;
44564;SDS011;30275;51.822;-0.326;2022-12-29T07:39:07;5.65;;;2.15;;
44564;SDS011;30275;51.822;-0.326;2022-12-29T07:41:33;2.40;;;0.82;;
44564;SDS011;30275;51.822;-0.326;2022-12-29T07:43:59;4.50;;;1.20;;
44564;SDS011;30275;51.822;-0.326;2022-12-29T07:46:26;4.90;;;1.25;;
44564;SDS011;30275;51.822;-0.326;2022-12-29T07:48:53;3.55;;;1.15;;
44564;SDS011;30275;51.822;-0.326;2022-12-29T07:54:39;5.00;;;1.10;;
44564;SDS011;30275;51.822;-0.326;2022-12-29T07:57:04;0.82;;;0.63;;
44564;SDS011;30275;51.822;-0.326;2022-12-29T07:59:31;2.10;;;0.90;;
44564;SDS011;30275;51.822;-0.326;2022-12-29T08:01:56;2.28;;;1.00;;
44564;SDS011;30275;51.822;-0.326;2022-12-29T08:04:22;1.85;;;0.90;;
44564;SDS011;30275;51.822;-0.326;2022-12-29T08:06:48;10.05;;;1.58;;
44564;SDS011;30275;51.822;-0.326;2022-12-29T08:09:14;6.72;;;1.30;;
44564;SDS011;30275;51.822;-0.326;2022-12-29T08:11:40;7.25;;;1.65;;
44564;SDS011;30275;51.822;-0.326;2022-12-29T08:14:09;0.93;;;0.68;;
44564;SDS011;30275;51.822;-0.326;2022-12-29T08:16:34;4.53;;;1.10;;
44564;SDS011;30275;51.822;-0.326;2022-12-29T08:19:00;3.72;;;1.20;;
44564;SDS011;30275;51.822;-0.326;2022-12-29T08:21:28;5.32;;;1.20;;
44564;SDS011;30275;51.822;-0.326;2022-12-29T08:23:55;6.63;;;1.90;;
44564;SDS011;30275;51.822;-0.326;2022-12-29T08:26:21;5.20;;;1.30;;
44564;SDS011;30275;51.822;-0.326;2022-12-29T08:28:46;6.43;;;1.85;;
44564;SDS011;30275;51.822;-0.326;2022-12-29T08:31:12;2.85;;;1.52;;
44564;SDS011;30275;51.822;-0.326;2022-12-29T08:33:38;7.65;;;1.48;;
44564;SDS011;30275;51.822;-0.326;2022-12-29T08:36:04;5.60;;;1.88;;
44564;SDS011;30275;51.822;-0.326;2022-12-29T08:38:31;7.75;;;1.80;;
44564;SDS011;30275;51.822;-0.326;2022-12-29T08:40:58;7.57;;;1.60;;
44564;SDS011;30275;51.822;-0.326;2022-12-29T08:43:26;4.35;;;1.33;;
44564;SDS011;30275;51.822;-0.326;2022-12-29T08:45:52;8.48;;;1.58;;
44564;SDS011;30275;51.822;-0.326;2022-12-29T08:48:18;2.17;;;0.90;;
44564;SDS011;30275;51.822;-0.326;2022-12-29T08:50:47;14.75;;;2.97;;
44564;SDS011;30275;51.822;-0.326;2022-12-29T08:53:13;5.80;;;1.48;;
44564;SDS011;30275;51.822;-0.326;2022-12-29T08:55:39;9.48;;;2.13;;
44564;SDS011;30275;51.822;-0.326;2022-12-29T08:58:04;7.07;;;1.40;;
44564;SDS011;30275;51.822;-0.326;2022-12-29T09:00:30;6.38;;;1.25;;
44564;SDS011;30275;51.822;-0.326;2022-12-29T09:02:56;4.28;;;1.35;;
44564;SDS011;30275;51.822;-0.326;2022-12-29T09:05:21;4.68;;;1.10;;
44564;SDS011;30275;51.822;-0.326;2022-12-29T09:07:47;11.82;;;2.10;;
44564;SDS011;30275;51.822;-0.326;2022-12-29T09:10:12;7.53;;;2.28;;
44564;SDS011;30275;51.822;-0.326;2022-12-29T09:12:38;4.95;;;1.77;;
44564;SDS011;30275;51.822;-0.326;2022-12-29T09:15:04;6.18;;;1.90;;
44564;SDS011;30275;51.822;-0.326;2022-12-29T09:17:31;6.45;;;1.05;;
44564;SDS011;30275;51.822;-0.326;2022-12-29T09:20:12;5.15;;;1.08;;
44564;SDS011;30275;51.822;-0.326;2022-12-29T09:22:39;1.33;;;1.10;;
44564;SDS011;30275;51.822;-0.326;2022-12-29T09:25:05;2.83;;;1.20;;
44564;SDS011;30275;51.822;-0.326;2022-12-29T09:27:31;1.55;;;0.73;;
44564;SDS011;30275;51.822;-0.326;2022-12-29T09:29:56;1.30;;;0.75;;
44564;SDS011;30275;51.822;-0.326;2022-12-29T09:32:22;3.42;;;0.70;;
44564;SDS011;30275;51.822;-0.326;2022-12-29T09:34:48;5.85;;;1.00;;
44564;SDS011;30275;51.822;-0.326;2022-12-29T09:37:13;0.80;;;0.68;;
44564;SDS011;30275;51.822;-0.326;2022-12-29T09:39:39;1.98;;;0.85;;
44564;SDS011;30275;51.822;-0.326;2022-12-29T09:42:09;0.63;;;0.43;;
44564;SDS011;30275;51.822;-0.326;2022-12-29T09:47:13;1.90;;;0.50;;
44564;SDS011;30275;51.822;-0.326;2022-12-29T09:49:54;0.85;;;0.40;;
44564;SDS011;30275;51.822;-0.326;2022-12-29T09:52:25;0.52;;;0.40;;
44564;SDS011;30275;51.822;-0.326;2022-12-29T09:54:59;0.68;;;0.38;;
44564;SDS011;30275;51.822;-0.326;2022-12-29T10:00:09;0.65;;;0.32;;
44564;SDS011;30275;51.822;-0.326;2022-12-29T10:03:02;0.95;;;0.28;;
44564;SDS011;30275;51.822;-0.326;2022-12-29T10:05:39;1.65;;;0.38;;
44564;SDS011;30275;51.822;-0.326;2022-12-29T10:08:39;0.50;;;0.40;;
44564;SDS011;30275;51.822;-0.326;2022-12-29T10:16:15;1.60;;;0.25;;
44564;SDS011;30275;51.822;-0.326;2022-12-29T10:19:06;2.55;;;0.50;;
44564;SDS011;30275;51.822;-0.326;2022-12-29T10:24:26;0.47;;;0.22;;
44564;SDS011;30275;51.822;-0.326;2022-12-29T10:26:56;1.27;;;0.50;;
44564;SDS011;30275;51.822;-0.326;2022-12-29T10:29:33;0.32;;;0.30;;
44564;SDS011;30275;51.822;-0.326;2022-12-29T10:32:21;5.05;;;2.83;;
44564;SDS011;30275;51.822;-0.326;2022-12-29T10:34:51;1.52;;;0.57;;
44564;SDS011;30275;51.822;-0.326;2022-12-29T10:42:57;1.73;;;0.90;;
44564;SDS011;30275;51.822;-0.326;2022-12-29T10:45:24;2.95;;;0.77;;
44564;SDS011;30275;51.822;-0.326;2022-12-29T10:47:59;3.78;;;1.10;;
44564;SDS011;30275;51.822;-0.326;2022-12-29T10:50:28;2.83;;;0.52;;
44564;SDS011;30275;51.822;-0.326;2022-12-29T10:52:54;4.40;;;1.08;;
44564;SDS011;30275;51.822;-0.326;2022-12-29T10:55:26;3.17;;;0.65;;
44564;SDS011;30275;51.822;-0.326;2022-12-29T10:57:56;6.20;;;0.73;;
44564;SDS011;30275;51.822;-0.326;2022-12-29T11:00:29;3.58;;;0.68;;
44564;SDS011;30275;51.822;-0.326;2022-12-29T11:03:03;0.60;;;0.35;;
44564;SDS011;30275;51.822;-0.326;2022-12-29T11:08:10;2.47;;;1.05;;
44564;SDS011;30275;51.822;-0.326;2022-12-29T11:10:38;5.55;;;1.30;;
44564;SDS011;30275;51.822;-0.326;2022-12-29T11:15:50;2.47;;;0.50;;
44564;SDS011;30275;51.822;-0.326;2022-12-29T11:18:36;1.63;;;0.82;;
44564;SDS011;30275;51.822;-0.326;2022-12-29T11:21:05;2.95;;;0.95;;
44564;SDS011;30275;51.822;-0.326;2022-12-29T11:24:00;2.50;;;0.88;;
44564;SDS011;30275;51.822;-0.326;2022-12-29T11:26:28;0.93;;;0.70;;
44564;SDS011;30275;51.822;-0.326;2022-12-29T11:31:52;2.42;;;0.80;;
44564;SDS011;30275;51.822;-0.326;2022-12-29T11:34:30;5.57;;;1.52;;
44564;SDS011;30275;51.822;-0.326;2022-12-29T11:36:59;4.82;;;1.08;;
44564;SDS011;30275;51.822;-0.326;2022-12-29T11:45:16;3.53;;;1.80;;
44564;SDS011;30275;51.822;-0.326;2022-12-29T11:47:45;6.18;;;1.10;;
44564;SDS011;30275;51.822;-0.326;2022-12-29T11:50:18;4.38;;;1.88;;
44564;SDS011;30275;51.822;-0.326;2022-12-29T11:52:46;3.58;;;1.48;;
44564;SDS011;30275;51.822;-0.326;2022-12-29T11:55:19;8.95;;;1.45;;
44564;SDS011;30275;51.822;-0.326;2022-12-29T11:57:47;4.80;;;1.42;;
44564;SDS011;30275;51.822;-0.326;2022-12-29T12:00:19;7.45;;;1.63;;
44564;SDS011;30275;51.822;-0.326;2022-12-29T12:07:49;2.83;;;1.10;;
44564;SDS011;30275;51.822;-0.326;2022-12-29T12:10:21;8.52;;;1.90;;
44564;SDS011;30275;51.822;-0.326;2022-12-29T12:15:57;6.75;;;1.20;;
44564;SDS011;30275;51.822;-0.326;2022-12-29T12:18:39;2.10;;;1.02;;
44564;SDS011;30275;51.822;-0.326;2022-12-29T12:29:16;15.32;;;2.38;;
44564;SDS011;30275;51.822;-0.326;2022-12-29T12:31:56;5.80;;;1.38;;
44564;SDS011;30275;51.822;-0.326;2022-12-29T12:34:36;1.98;;;0.90;;
44564;SDS011;30275;51.822;-0.326;2022-12-29T12:37:26;5.60;;;1.88;;
44564;SDS011;30275;51.822;-0.326;2022-12-29T12:43:12;3.65;;;1.00;;
44564;SDS011;30275;51.822;-0.326;2022-12-29T12:57:04;2.53;;;1.10;;
44564;SDS011;30275;51.822;-0.326;2022-12-29T13:20:16;5.35;;;1.58;;
44564;SDS011;30275;51.822;-0.326;2022-12-29T13:23:05;4.88;;;1.55;;
44564;SDS011;30275;51.822;-0.326;2022-12-29T13:25:42;5.40;;;1.40;;
44564;SDS011;30275;51.822;-0.326;2022-12-29T13:28:42;2.97;;;1.38;;
44564;SDS011;30275;51.822;-0.326;2022-12-29T13:34:20;4.95;;;1.45;;
44564;SDS011;30275;51.822;-0.326;2022-12-29T13:37:14;11.90;;;1.63;;
44564;SDS011;30275;51.822;-0.326;2022-12-29T13:39:54;4.82;;;0.95;;
44564;SDS011;30275;51.822;-0.326;2022-12-29T13:42:22;4.93;;;1.38;;
44564;SDS011;30275;51.822;-0.326;2022-12-29T13:44:52;4.82;;;1.50;;
44564;SDS011;30275;51.822;-0.326;2022-12-29T13:50:13;10.52;;;1.30;;
44564;SDS011;30275;51.822;-0.326;2022-12-29T13:55:55;6.55;;;1.75;;
44564;SDS011;30275;51.822;-0.326;2022-12-29T13:58:32;9.20;;;1.53;;
44564;SDS011;30275;51.822;-0.326;2022-12-29T14:01:18;6.43;;;1.35;;
44564;SDS011;30275;51.822;-0.326;2022-12-29T14:03:57;6.72;;;1.60;;
44564;SDS011;30275;51.822;-0.326;2022-12-29T14:06:28;3.55;;;1.73;;
44564;SDS011;30275;51.822;-0.326;2022-12-29T14:09:03;5.80;;;1.63;;
44564;SDS011;30275;51.822;-0.326;2022-12-29T14:11:31;12.45;;;1.60;;
44564;SDS011;30275;51.822;-0.326;2022-12-29T14:13:59;5.22;;;1.25;;
44564;SDS011;30275;51.822;-0.326;2022-12-29T14:16:46;4.78;;;1.38;;
44564;SDS011;30275;51.822;-0.326;2022-12-29T14:19:16;7.45;;;1.98;;
44564;SDS011;30275;51.822;-0.326;2022-12-29T14:21:53;7.57;;;1.77;;
44564;SDS011;30275;51.822;-0.326;2022-12-29T14:34:59;3.53;;;1.55;;
44564;SDS011;30275;51.822;-0.326;2022-12-29T14:37:45;6.65;;;1.30;;
44564;SDS011;30275;51.822;-0.326;2022-12-29T14:42:51;4.95;;;1.55;;
44564;SDS011;30275;51.822;-0.326;2022-12-29T14:47:54;3.45;;;1.02;;
44564;SDS011;30275;51.822;-0.326;2022-12-29T14:55:30;6.93;;;2.10;;
44564;SDS011;30275;51.822;-0.326;2022-12-29T14:58:18;5.03;;;1.80;;
44564;SDS011;30275;51.822;-0.326;2022-12-29T15:00:50;5.30;;;1.63;;
44564;SDS011;30275;51.822;-0.326;2022-12-29T15:03:20;4.80;;;1.55;;
44564;SDS011;30275;51.822;-0.326;2022-12-29T15:05:53;5.68;;;1.17;;
44564;SDS011;30275;51.822;-0.326;2022-12-29T15:08:42;8.35;;;1.60;;
44564;SDS011;30275;51.822;-0.326;2022-12-29T15:14:31;2.65;;;1.15;;
44564;SDS011;30275;51.822;-0.326;2022-12-29T15:17:22;5.57;;;1.50;;
44564;SDS011;30275;51.822;-0.326;2022-12-29T15:19:48;5.80;;;2.00;;
44564;SDS011;30275;51.822;-0.326;2022-12-29T15:22:17;5.28;;;1.48;;
44564;SDS011;30275;51.822;-0.326;2022-12-29T15:24:43;7.65;;;2.47;;
44564;SDS011;30275;51.822;-0.326;2022-12-29T15:27:13;8.55;;;2.67;;
44564;SDS011;30275;51.822;-0.326;2022-12-29T15:29:41;3.20;;;1.80;;
44564;SDS011;30275;51.822;-0.326;2022-12-29T15:34:40;3.28;;;1.65;;
44564;SDS011;30275;51.822;-0.326;2022-12-29T15:37:07;6.00;;;1.27;;
44564;SDS011;30275;51.822;-0.326;2022-12-29T15:39:33;6.97;;;1.48;;
44564;SDS011;30275;51.822;-0.326;2022-12-29T15:42:00;5.72;;;1.80;;
44564;SDS011;30275;51.822;-0.326;2022-12-29T15:44:39;5.55;;;1.17;;
44564;SDS011;30275;51.822;-0.326;2022-12-29T15:47:17;6.60;;;1.52;;
44564;SDS011;30275;51.822;-0.326;2022-12-29T15:49:48;9.82;;;1.65;;
44564;SDS011;30275;51.822;-0.326;2022-12-29T15:52:18;7.13;;;2.03;;
44564;SDS011;30275;51.822;-0.326;2022-12-29T15:54:46;6.70;;;1.70;;
44564;SDS011;30275;51.822;-0.326;2022-12-29T15:57:30;2.83;;;1.15;;
44564;SDS011;30275;51.822;-0.326;2022-12-29T16:00:02;3.15;;;1.10;;
44564;SDS011;30275;51.822;-0.326;2022-12-29T16:02:29;3.15;;;1.02;;
44564;SDS011;30275;51.822;-0.326;2022-12-29T16:04:55;5.65;;;1.17;;
44564;SDS011;30275;51.822;-0.326;2022-12-29T16:09:55;5.35;;;1.52;;
44564;SDS011;30275;51.822;-0.326;2022-12-29T16:12:23;5.00;;;1.90;;
44564;SDS011;30275;51.822;-0.326;2022-12-29T16:14:52;6.00;;;2.20;;
44564;SDS011;30275;51.822;-0.326;2022-12-29T16:17:21;8.63;;;1.65;;
44564;SDS011;30275;51.822;-0.326;2022-12-29T16:19:56;2.63;;;1.13;;
44564;SDS011;30275;51.822;-0.326;2022-12-29T16:22:38;1.27;;;0.98;;
44564;SDS011;30275;51.822;-0.326;2022-12-29T16:25:15;5.68;;;1.42;;
44564;SDS011;30275;51.822;-0.326;2022-12-29T16:27:48;2.83;;;2.00;;
44564;SDS011;30275;51.822;-0.326;2022-12-29T16:32:49;5.05;;;1.50;;
44564;SDS011;30275;51.822;-0.326;2022-12-29T16:35:21;3.88;;;1.33;;
44564;SDS011;30275;51.822;-0.326;2022-12-29T16:40:33;7.18;;;1.10;;
44564;SDS011;30275;51.822;-0.326;2022-12-29T16:43:03;8.20;;;1.10;;
44564;SDS011;30275;51.822;-0.326;2022-12-29T16:50:39;7.07;;;1.70;;
44564;SDS011;30275;51.822;-0.326;2022-12-29T16:53:15;3.75;;;1.50;;
44564;SDS011;30275;51.822;-0.326;2022-12-29T16:55:49;1.90;;;0.95;;
44564;SDS011;30275;51.822;-0.326;2022-12-29T16:58:24;10.23;;;1.20;;
44564;SDS011;30275;51.822;-0.326;2022-12-29T17:00:54;8.68;;;1.60;;
44564;SDS011;30275;51.822;-0.326;2022-12-29T17:03:21;3.70;;;1.15;;
44564;SDS011;30275;51.822;-0.326;2022-12-29T17:05:48;3.35;;;1.60;;
44564;SDS011;30275;51.822;-0.326;2022-12-29T17:08:18;8.75;;;1.40;;
44564;SDS011;30275;51.822;-0.326;2022-12-29T17:10:52;6.82;;;1.83;;
44564;SDS011;30275;51.822;-0.326;2022-12-29T17:13:39;4.45;;;1.67;;
44564;SDS011;30275;51.822;-0.326;2022-12-29T17:16:06;7.22;;;1.52;;
44564;SDS011;30275;51.822;-0.326;2022-12-29T17:18:34;6.53;;;1.23;;
44564;SDS011;30275;51.822;-0.326;2022-12-29T17:21:00;5.25;;;2.13;;
44564;SDS011;30275;51.822;-0.326;2022-12-29T17:23:27;11.45;;;2.38;;
44564;SDS011;30275;51.822;-0.326;2022-12-29T17:25:54;16.10;;;8.05;;
44564;SDS011;30275;51.822;-0.326;2022-12-29T17:28:27;9.85;;;3.83;;
44564;SDS011;30275;51.822;-0.326;2022-12-29T17:31:01;5.43;;;1.90;;
44564;SDS011;30275;51.822;-0.326;2022-12-29T17:33:29;7.45;;;1.63;;
44564;SDS011;30275;51.822;-0.326;2022-12-29T17:36:01;11.93;;;3.00;;
44564;SDS011;30275;51.822;-0.326;2022-12-29T17:38:27;6.15;;;1.35;;